SKCC/CUC METAR and TAF weather

Enter ICAO airport designator
Station Type Date Time Source
SKCC METAR 2019/04/25 10:00 UTC NOAA

SKCC 251000Z VRB02KT 5000 BR SCT008 BKN070 24/24 A2994


Station Type Date Time Source
SKCC Decoded METAR 2019/04/25 10:00 UTC NOAA

Cucuta / Camilo Daza, Colombia (SKCC) 07-56N 072-31W 317M
Apr 25, 2019 - 06:00 AM EDT / 2019.04.25 1000 UTC
Wind: Variable at 2 MPH (2 KT):0
Visibility: 3 mile(s):0
Sky conditions: mostly cloudy
Weather: mist
Temperature: 75 F (24 C)
Dew Point: 75 F (24 C)
Relative Humidity: 100%
Pressure (altimeter): 29.94 in. Hg (1013 hPa)
ob: SKCC 251000Z VRB02KT 5000 BR SCT008 BKN070 24/24 A2994
cycle: 10

Station Type Date Time Source
SKCC TAF 2019/04/25 06:30 UTC NOAA

TAF SKCC 250430Z 2506/2606 VRB02KT 9999 SCT018 BKN090
TEMPO 2509/2514 4000 DZRA BR BKN012
BECMG 2514/2516 36011KT TX30/2518Z TN23/2511Z

Example: see airport list